| << 3.5. | 5.5. >> |
|
Dirección del viento en Grado |
Velocidad del viento en km/h |
Ráfagas de viento en m/s |
Temperatura en °C |
Humedad rel. en % |
Windchill en °C |
Presión atm. en hPa |
Punto de rocío en °C |
Precipitación en mm |
Radiación global en W/m² |
|
|---|---|---|---|---|---|---|---|---|---|---|
| ▲ Máximos | 16,2 | 7,8 | 24,7 | 76,9 | 27,04 | 14,8 | 1079 | |||
| Ø Promedio | 145,1 | 8,1 | 3,7 | 17,9 | 60,8 | 18,54 | 10,1 | 363 | ||
| ▼ Mínimos | 0,0 | 0,0 | 14,5 | 36,2 | 14,85 | 1,1 | 7 | |||
| ∑ Total |
| Tiempo (UTC) | Dirección del viento en Grado | Velocidad del viento en km/h | Ráfagas de viento en m/s | Temperatura en °C | Humedad rel. en % | Windchill en °C | Presión atm. en hPa | Punto de rocío en °C | Precipitación en mm | Radiación global en W/m² |
|---|---|---|---|---|---|---|---|---|---|---|
| 00:00 | 258,4 | 5,3 | 2,2 | 15,1 | 42,9 | 15,52 | --- | 3,0 | --- | 7 |
| 00:10 | 247,6 | 4,2 | 1,8 | 15,2 | 42,8 | 15,83 | --- | 3,0 | --- | 7 |
| 00:20 | 223,9 | 3,9 | 1,3 | 15,1 | 41,9 | 15,80 | --- | 2,7 | --- | 7 |
| 00:30 | 241,5 | 4,2 | 1,4 | 15,1 | 40,3 | 15,72 | --- | 2,2 | --- | 7 |
| 00:40 | 237,5 | 4,9 | 1,6 | 15,1 | 40,3 | 15,53 | --- | 2,2 | --- | 7 |
| 00:50 | 246,1 | 4,8 | 1,8 | 14,9 | 40,3 | 15,39 | --- | 2,0 | --- | 7 |
| 01:00 | 249,6 | 5,4 | 2,0 | 14,8 | 39,9 | 15,16 | --- | 1,8 | --- | 7 |
| 01:10 | 243,0 | 5,9 | 2,3 | 14,8 | 39,8 | 15,06 | --- | 1,8 | --- | 7 |
| 01:20 | 238,1 | 6,3 | 2,4 | 15,0 | 38,9 | 15,15 | --- | 1,6 | --- | 7 |
| 01:30 | 249,8 | 6,1 | 2,3 | 15,0 | 37,8 | 15,19 | --- | 1,3 | --- | 7 |
| 01:40 | 235,4 | 5,0 | 2,1 | 15,0 | 37,4 | 15,44 | --- | 1,1 | --- | 7 |
| 01:50 | 234,5 | 5,5 | 2,2 | 15,5 | 36,2 | 15,91 | --- | 1,2 | --- | 7 |
| 02:00 | 222,0 | 4,5 | 1,7 | 15,7 | 38,9 | 16,30 | --- | 2,3 | --- | 7 |
| 02:10 | 217,3 | 3,7 | 1,5 | 15,6 | 41,5 | 16,47 | --- | 3,0 | --- | 7 |
| 02:20 | 218,5 | 3,8 | 1,3 | 15,2 | 45,4 | 16,01 | --- | 3,9 | --- | 7 |
| 02:30 | 219,9 | 3,7 | 1,3 | 14,8 | 48,2 | 15,49 | --- | 4,3 | --- | 7 |
| 02:40 | 232,2 | 4,2 | 1,5 | 14,7 | 47,0 | 15,35 | --- | 3,9 | --- | 7 |
| 02:50 | 228,0 | 4,6 | 1,7 | 15,1 | 45,0 | 15,59 | --- | 3,6 | --- | 7 |
| 03:00 | 236,8 | 5,9 | 2,3 | 15,2 | 44,5 | 15,47 | --- | 3,6 | --- | 7 |
| 03:10 | 237,7 | 6,2 | 2,1 | 15,1 | 46,0 | 15,31 | --- | 3,9 | --- | 7 |
| 03:20 | 238,8 | 5,4 | 2,0 | 15,3 | 46,5 | 15,63 | --- | 4,2 | --- | 7 |
| 03:30 | 238,8 | 5,5 | 1,9 | 15,1 | 47,4 | 15,45 | --- | 4,3 | --- | 7 |
| 03:40 | 226,6 | 5,1 | 2,0 | 15,2 | 46,5 | 15,62 | --- | 4,2 | --- | 7 |
| 03:50 | 221,7 | 4,5 | 1,6 | 15,2 | 49,8 | 15,73 | --- | 5,1 | --- | 7 |
| 04:00 | 223,2 | 5,0 | 1,8 | 15,0 | 53,1 | 15,42 | --- | 5,8 | --- | 7 |
| 04:10 | 223,6 | 4,6 | 1,6 | 14,9 | 55,7 | 15,38 | --- | 6,3 | --- | 7 |
| 04:20 | 237,4 | 5,5 | 1,9 | 15,3 | 54,5 | 15,69 | --- | 6,4 | --- | 7 |
| 04:30 | 240,1 | 4,8 | 1,8 | 15,2 | 55,4 | 15,72 | --- | 6,5 | --- | 7 |
| 04:40 | 27,9 | 0,8 | 1,4 | 14,9 | 55,4 | 20,55 | --- | 6,3 | --- | 7 |
| 04:50 | 224,7 | 1,9 | 1,4 | 14,5 | 56,8 | 18,29 | --- | 6,2 | --- | 7 |
| 05:00 | 240,9 | 4,5 | 1,6 | 14,6 | 57,7 | 15,06 | --- | 6,5 | --- | 7 |
| 05:10 | 238,5 | 3,8 | 1,4 | 14,7 | 57,0 | 15,40 | --- | 6,5 | --- | 7 |
| 05:20 | 230,9 | 4,4 | 2,0 | 14,8 | 57,1 | 15,33 | --- | 6,6 | --- | 7 |
| 05:30 | 240,1 | 6,0 | 2,5 | 15,0 | 56,5 | 15,27 | --- | 6,6 | --- | 7 |
| 05:40 | 241,0 | 5,8 | 2,4 | 15,2 | 55,5 | 15,54 | --- | 6,6 | --- | 7 |
| 05:50 | 232,4 | 5,1 | 2,2 | 15,5 | 54,4 | 15,96 | --- | 6,5 | --- | 7 |
| 06:00 | 216,3 | 3,2 | 1,4 | 15,4 | 54,4 | 16,33 | --- | 6,4 | --- | 7 |
| 06:10 | 205,7 | 4,7 | 1,8 | 15,6 | 53,4 | 16,17 | --- | 6,4 | --- | 8 |
| 06:20 | 204,2 | 4,1 | 1,6 | 15,4 | 54,4 | 16,08 | --- | 6,5 | --- | 12 |
| 06:30 | 217,1 | 3,8 | 1,4 | 15,3 | 55,1 | 16,02 | --- | 6,5 | --- | 28 |
| 06:40 | 218,1 | 3,3 | 1,2 | 15,6 | 53,6 | 16,53 | --- | 6,5 | --- | 58 |
| 06:50 | 211,5 | 0,9 | 1,0 | 16,5 | 52,2 | 21,11 | --- | 6,9 | --- | 92 |
| 07:00 | 360,0 | 0,0 | 0,0 | 18,8 | 48,5 | 24,79 | --- | 8,0 | --- | 128 |
| 07:10 | 165,1 | 1,1 | 1,3 | 20,0 | 42,8 | 23,74 | --- | 7,4 | --- | 167 |
| 07:20 | 163,8 | 2,8 | 1,5 | 19,9 | 44,5 | 21,71 | --- | 7,8 | --- | 207 |
| 07:30 | 123,4 | 1,2 | 1,3 | 21,3 | 43,4 | 24,40 | --- | 8,8 | --- | 247 |
| 07:40 | 110,7 | 2,5 | 1,5 | 22,6 | 39,9 | 24,81 | --- | 8,8 | --- | 288 |
| 07:50 | 66,5 | 0,6 | 1,0 | 23,5 | 40,3 | 27,04 | --- | 9,8 | --- | 327 |
| Tiempo (UTC) | Dirección del viento en Grado | Velocidad del viento en km/h | Ráfagas de viento en m/s | Temperatura en °C | Humedad rel. en % | Windchill en °C | Presión atm. en hPa | Punto de rocío en °C | Precipitación en mm | Radiación global en W/m² |
|---|---|---|---|---|---|---|---|---|---|---|
| 08:00 | 86,9 | 4,0 | 1,6 | 24,7 | 37,8 | 26,50 | --- | 10,0 | --- | 370 |
| 08:10 | 85,5 | 5,8 | 2,5 | 22,3 | 43,9 | 23,68 | --- | 9,9 | --- | 411 |
| 08:20 | 95,6 | 7,0 | 3,0 | 21,1 | 47,6 | 22,17 | --- | 9,9 | --- | 451 |
| 08:30 | 108,5 | 7,3 | 3,3 | 20,5 | 49,8 | 21,45 | --- | 10,0 | --- | 491 |
| 08:40 | 111,2 | 8,6 | 4,3 | 20,3 | 53,1 | 21,06 | --- | 10,7 | --- | 531 |
| 08:50 | 109,0 | 9,9 | 4,6 | 19,9 | 56,4 | 20,47 | --- | 11,2 | --- | 571 |
| 09:00 | 117,6 | 11,1 | 6,3 | 19,8 | 59,1 | 20,24 | --- | 11,8 | --- | 610 |
| 09:10 | 124,2 | 10,9 | 5,5 | 19,6 | 60,4 | 20,01 | --- | 11,9 | --- | 646 |
| 09:20 | 113,2 | 12,0 | 5,8 | 19,5 | 62,4 | 19,87 | --- | 12,3 | --- | 682 |
| 09:30 | 115,2 | 12,1 | 6,9 | 19,4 | 66,9 | 19,72 | --- | 13,2 | --- | 716 |
| 09:40 | 113,0 | 13,5 | 6,4 | 19,2 | 69,9 | 19,38 | --- | 13,7 | --- | 749 |
| 09:50 | 117,1 | 14,3 | 7,4 | 18,9 | 69,2 | 18,99 | --- | 13,2 | --- | 780 |
| 10:00 | 112,1 | 12,9 | 6,1 | 19,0 | 70,9 | 19,20 | --- | 13,7 | --- | 810 |
| 10:10 | 107,4 | 16,2 | 7,0 | 18,8 | 71,8 | 18,72 | --- | 13,7 | --- | 842 |
| 10:20 | 107,5 | 15,8 | 7,1 | 18,4 | 74,1 | 18,20 | --- | 13,7 | --- | 873 |
| 10:30 | 113,0 | 15,1 | 7,1 | 18,7 | 74,5 | 18,65 | --- | 14,1 | --- | 903 |
| 10:40 | 118,3 | 12,8 | 6,6 | 19,1 | 73,9 | 19,29 | --- | 14,4 | --- | 930 |
| 10:50 | 107,0 | 13,6 | 6,8 | 19,6 | 72,0 | 19,81 | --- | 14,4 | --- | 957 |
| 11:00 | 102,1 | 14,4 | 6,3 | 19,5 | 67,7 | 19,62 | --- | 13,4 | --- | 983 |
| 11:10 | 102,3 | 14,2 | 6,1 | 19,7 | 68,3 | 19,90 | --- | 13,8 | --- | 1005 |
| 11:20 | 102,9 | 14,8 | 7,2 | 19,5 | 69,1 | 19,69 | --- | 13,8 | --- | 1025 |
| 11:30 | 108,9 | 14,1 | 6,8 | 19,6 | 66,8 | 19,82 | --- | 13,4 | --- | 1042 |
| 11:40 | 102,7 | 14,1 | 6,4 | 19,9 | 67,5 | 20,20 | --- | 13,8 | --- | 1054 |
| 11:50 | 104,0 | 14,6 | 6,6 | 20,0 | 66,4 | 20,25 | --- | 13,7 | --- | 1065 |
| 12:00 | 112,1 | 15,3 | 7,7 | 20,1 | 65,7 | 20,30 | --- | 13,6 | --- | 1074 |
| 12:10 | 103,3 | 15,6 | 7,1 | 20,0 | 66,5 | 20,22 | --- | 13,7 | --- | 1077 |
| 12:20 | 107,9 | 15,0 | 7,8 | 20,0 | 67,4 | 20,31 | --- | 13,9 | --- | 1079 |
| 12:30 | 110,4 | 14,7 | 7,2 | 20,3 | 66,2 | 20,62 | --- | 13,9 | --- | 1079 |
| 12:40 | 109,5 | 12,7 | 6,4 | 20,4 | 65,9 | 20,88 | --- | 13,9 | --- | 1077 |
| 12:50 | 104,6 | 13,8 | 6,0 | 20,7 | 65,2 | 21,18 | --- | 14,1 | --- | 1073 |
| 13:00 | 100,2 | 14,7 | 6,4 | 20,7 | 65,4 | 21,16 | --- | 14,1 | --- | 1070 |
| 13:10 | 103,6 | 12,5 | 6,0 | 20,7 | 65,2 | 21,26 | --- | 14,1 | --- | 1063 |
| 13:20 | 93,9 | 13,0 | 5,8 | 21,0 | 63,3 | 21,61 | --- | 13,9 | --- | 1056 |
| 13:30 | 99,8 | 11,4 | 5,1 | 21,1 | 62,0 | 21,82 | --- | 13,7 | --- | 1048 |
| 13:40 | 98,2 | 12,1 | 5,8 | 21,2 | 60,9 | 21,89 | --- | 13,5 | --- | 1039 |
| 13:50 | 93,7 | 11,6 | 5,5 | 21,2 | 61,7 | 21,90 | --- | 13,7 | --- | 1025 |
| 14:00 | 97,4 | 10,9 | 5,0 | 21,1 | 61,0 | 21,89 | --- | 13,5 | --- | 1011 |
| 14:10 | 95,1 | 10,8 | 5,5 | 21,4 | 62,0 | 22,17 | --- | 14,0 | --- | 992 |
| 14:20 | 99,0 | 10,3 | 5,0 | 21,4 | 62,0 | 22,19 | --- | 13,9 | --- | 972 |
| 14:30 | 105,3 | 9,7 | 4,5 | 21,6 | 62,3 | 22,47 | --- | 14,2 | --- | 949 |
| 14:40 | 101,1 | 9,3 | 4,7 | 21,7 | 61,9 | 22,61 | --- | 14,2 | --- | 928 |
| 14:50 | 105,8 | 10,2 | 5,1 | 21,8 | 62,4 | 22,68 | --- | 14,4 | --- | 906 |
| 15:00 | 98,4 | 9,8 | 5,3 | 21,6 | 64,0 | 22,47 | --- | 14,6 | --- | 882 |
| 15:10 | 98,0 | 9,7 | 4,5 | 21,5 | 64,4 | 22,41 | --- | 14,6 | --- | 858 |
| 15:20 | 103,6 | 9,2 | 4,6 | 21,4 | 65,5 | 22,32 | --- | 14,8 | --- | 837 |
| 15:30 | 99,8 | 9,7 | 4,5 | 21,4 | 64,9 | 22,34 | --- | 14,7 | --- | 816 |
| 15:40 | 97,4 | 9,9 | 4,8 | 21,5 | 63,5 | 22,39 | --- | 14,4 | --- | 796 |
| 15:50 | 105,7 | 11,7 | 5,4 | 21,4 | 62,6 | 22,14 | --- | 14,1 | --- | 785 |
| Tiempo (UTC) | Dirección del viento en Grado | Velocidad del viento en km/h | Ráfagas de viento en m/s | Temperatura en °C | Humedad rel. en % | Windchill en °C | Presión atm. en hPa | Punto de rocío en °C | Precipitación en mm | Radiación global en W/m² |
|---|---|---|---|---|---|---|---|---|---|---|
| 16:00 | 104,4 | 11,8 | 6,0 | 21,2 | 61,8 | 21,90 | --- | 13,7 | --- | 801 |
| 16:10 | 110,1 | 12,2 | 6,0 | 21,1 | 63,1 | 21,74 | --- | 13,9 | --- | 803 |
| 16:20 | 119,3 | 13,9 | 6,4 | 20,8 | 65,0 | 21,24 | --- | 14,1 | --- | 709 |
| 16:30 | 119,0 | 12,1 | 6,0 | 20,5 | 66,5 | 21,00 | --- | 14,1 | --- | 665 |
| 16:40 | 113,7 | 12,2 | 5,9 | 20,3 | 66,4 | 20,78 | --- | 13,9 | --- | 619 |
| 16:50 | 110,4 | 13,8 | 6,3 | 20,0 | 65,5 | 20,35 | --- | 13,5 | --- | 587 |
| 17:00 | 102,4 | 10,9 | 4,9 | 19,9 | 66,3 | 20,38 | --- | 13,5 | --- | 547 |
| 17:10 | 93,7 | 11,3 | 5,2 | 19,9 | 66,2 | 20,31 | --- | 13,5 | --- | 497 |
| 17:20 | 101,2 | 9,1 | 4,3 | 19,9 | 66,6 | 20,55 | --- | 13,6 | --- | 457 |
| 17:30 | 107,3 | 8,0 | 3,5 | 20,1 | 66,7 | 20,87 | --- | 13,8 | --- | 413 |
| 17:40 | 90,7 | 8,8 | 3,9 | 20,1 | 66,5 | 20,85 | --- | 13,8 | --- | 370 |
| 17:50 | 101,6 | 7,7 | 3,0 | 19,9 | 67,4 | 20,70 | --- | 13,8 | --- | 332 |
| 18:00 | 110,2 | 9,4 | 3,8 | 19,7 | 67,5 | 20,27 | --- | 13,6 | --- | 293 |
| 18:10 | 99,9 | 10,0 | 4,0 | 19,3 | 67,0 | 19,75 | --- | 13,1 | --- | 256 |
| 18:20 | 101,8 | 9,6 | 4,0 | 19,0 | 67,3 | 19,45 | --- | 12,9 | --- | 220 |
| 18:30 | 118,6 | 9,1 | 4,2 | 18,6 | 67,4 | 19,03 | --- | 12,6 | --- | 176 |
| 18:40 | 125,9 | 9,7 | 4,5 | 18,2 | 67,3 | 18,49 | --- | 12,2 | --- | 145 |
| 18:50 | 126,5 | 9,3 | 4,4 | 18,0 | 67,9 | 18,23 | --- | 12,0 | --- | 117 |
| 19:00 | 131,5 | 8,6 | 3,9 | 17,8 | 69,4 | 18,10 | --- | 12,2 | --- | 85 |
| 19:10 | 129,3 | 8,3 | 3,9 | 17,6 | 70,2 | 17,86 | --- | 12,1 | --- | 57 |
| 19:20 | 125,6 | 7,1 | 3,2 | 17,3 | 71,8 | 17,67 | --- | 12,2 | --- | 31 |
| 19:30 | 128,0 | 5,9 | 2,4 | 16,9 | 72,6 | 17,43 | --- | 12,0 | --- | 18 |
| 19:40 | 135,3 | 5,5 | 2,9 | 16,4 | 73,3 | 16,97 | --- | 11,7 | --- | 10 |
| 19:50 | 142,1 | 6,1 | 3,2 | 16,0 | 73,8 | 16,40 | --- | 11,4 | --- | 8 |
| 20:00 | 148,8 | 6,5 | 3,1 | 15,8 | 74,1 | 16,10 | --- | 11,3 | --- | 7 |
| 20:10 | 152,4 | 6,1 | 2,6 | 15,7 | 74,3 | 16,04 | --- | 11,2 | --- | 7 |
| 20:20 | 160,0 | 5,6 | 2,5 | 15,7 | 74,4 | 16,08 | --- | 11,1 | --- | 7 |
| 20:30 | 168,0 | 5,2 | 2,7 | 15,7 | 74,2 | 16,20 | --- | 11,2 | --- | 7 |
| 20:40 | 165,8 | 6,9 | 2,6 | 15,7 | 74,0 | 15,90 | --- | 11,1 | --- | 7 |
| 20:50 | 173,8 | 6,0 | 2,4 | 15,7 | 74,2 | 16,05 | --- | 11,2 | --- | 7 |
| 21:00 | 173,4 | 5,9 | 2,3 | 15,7 | 74,4 | 16,04 | --- | 11,2 | --- | 8 |
| 21:10 | 159,0 | 6,0 | 2,5 | 15,7 | 74,4 | 16,01 | --- | 11,2 | --- | 7 |
| 21:20 | 154,3 | 6,6 | 3,1 | 15,8 | 73,8 | 15,99 | --- | 11,1 | --- | 7 |
| 21:30 | 173,1 | 6,1 | 3,0 | 15,8 | 73,9 | 16,07 | --- | 11,1 | --- | 7 |
| 21:40 | 170,1 | 6,6 | 2,4 | 15,6 | 75,0 | 15,79 | --- | 11,2 | --- | 7 |
| 21:50 | 160,7 | 7,5 | 3,2 | 15,6 | 74,9 | 15,61 | --- | 11,1 | --- | 7 |
| 22:00 | 151,7 | 6,5 | 3,2 | 15,6 | 74,3 | 15,82 | --- | 11,1 | --- | 7 |
| 22:10 | 157,8 | 7,0 | 3,0 | 15,6 | 74,5 | 15,69 | --- | 11,1 | --- | 7 |
| 22:20 | 155,0 | 7,4 | 3,3 | 15,5 | 74,5 | 15,56 | --- | 11,0 | --- | 7 |
| 22:30 | 157,9 | 8,2 | 3,4 | 15,5 | 74,7 | 15,39 | --- | 11,0 | --- | 7 |
| 22:40 | 156,1 | 7,7 | 3,6 | 15,4 | 74,9 | 15,40 | --- | 11,0 | --- | 7 |
| 22:50 | 156,1 | 7,5 | 3,5 | 15,2 | 75,5 | 15,22 | --- | 10,9 | --- | 7 |
| 23:00 | 155,5 | 7,6 | 3,2 | 15,1 | 75,9 | 15,05 | --- | 10,9 | --- | 7 |
| 23:10 | 149,7 | 8,3 | 4,4 | 15,1 | 76,1 | 14,94 | --- | 10,9 | --- | 7 |
| 23:20 | 147,7 | 7,9 | 4,2 | 15,0 | 76,5 | 14,92 | --- | 10,9 | --- | 7 |
| 23:30 | 146,4 | 7,8 | 3,8 | 14,9 | 76,9 | 14,85 | --- | 10,9 | --- | 7 |
| 23:40 | 152,7 | 6,9 | 3,3 | 15,0 | 76,6 | 15,05 | --- | 10,9 | --- | 7 |
| 23:50 | 147,2 | 6,9 | 3,6 | 15,1 | 76,3 | 15,13 | --- | 10,9 | --- | 8 |
| << 3.5. | 5.5. >> |